Airfield :
LOGIN :

Register | Disclaimer

   EN    FR    IT 

 










Legend :    VFR   Marginal VFR   IFR   Intensive IFR   Very Intensive IFR
Visi :
Ceiling :
>= 8 km
>= 3000ft
5 to 8 km
1000 to 3000 ft
1500m to 5 km
500 to 1000 ft
800 to 1500m
200 to 500 ft
< 800m
< 200 ft
Symbols :   Thunderstorms  Fog  Heavy snow  Heavy precipitations  Wind > 20 kt
SIGMETs :     Misc.  Thunderstorms  Icing  Turbulence  Mountain Waves  Volcanic Ashes






- Airport Elevation : 162 ft
- IATA code : BOD


LFBD - Bordeaux / Merignac

CURRENT METAR :
  • 070800Z AUTO 33010KT 9999 FEW019 BKN033 OVC046 14/09 Q1013 TEMPO 28015G25KT BKN020TCU

EXPIRED METARs :
  • 070730Z AUTO VRB02KT 9999 FEW038 SCT045 OVC060 15/07 Q1012 TEMPO 28015G25KT BKN020TCU
  • 070700Z AUTO 21004KT 170V230 9999 FEW041 OVC060 13/08 Q1012 NOSIG
  • 070630Z AUTO 23002KT 9999 SCT040 BKN048 OVC058 13/08 Q1011 NOSIG
  • 070600Z AUTO 20003KT 9999 FEW044 OVC060 12/09 Q1011 NOSIG
  • 070530Z AUTO 21003KT CAVOK 10/08 Q1011 NOSIG

TAF TAF LFBD
Valid from the 07 at 06:00 until the 08 at 12:00 UTC


070500Z 0706/0812 26005KT 9999 BKN040 TX19/0714Z TN10/0706Z
TEMPO 0707/0709 -SHRA
TEMPO 0709/0717 28015G25KT -SHRA BKN020TCU
TEMPO 0810/0812 -SHRA BKN020TCU
ATIS : +33 5 57 92 81 04



MET'MAP, your aeronautical weather chart ! - Copyright ORBIFLY December 2007 - Disclaimer

ORBIFLY MET'MAP TEAM :

Programming & Development : Alexandra Zaïnal
Concept & original design : Baudouin d'Aumeries
Assistance for programming : Marc-Olivier Méhu
Technical & hardware support : Manuel Goepfert

Contact : metmap@orbifly.com




SOURCES & CREDITS :

   NOAA